DLH1HF EDDL-EDDF
Flight info
| Callsign | DLH1HF |
|---|---|
| Flight time | 0h 30m |
| Altitude | 23000 |
| Route | COL5Z/05R COL T911 ROLIS ROLIS5A |
| Aircraft | A320/M-SDE3FGHIRWY/LB1 |
Departure
| Time | 2026-05-07 18:20 |
|---|---|
| Airport | Düsseldorf Airport (EDDL) |
Arrival
| Time | 2026-05-07 18:51 |
|---|---|
| Airport | Frankfurt Main Airport (EDDF) |
| Time | Latitude | Longitude | Altitude | Speed | Heading |
|---|---|---|---|---|---|
| 2026-05-07 17:51 | 51.28059 | 6.76708 | 125 ft | 0 kts | 275° |
| 2026-05-07 18:11 | 51.28058 | 6.76724 | 123 ft | 3 kts | 276° |
| 2026-05-07 18:11 | 51.28057 | 6.76745 | 124 ft | 3 kts | 282° |
| 2026-05-07 18:11 | 51.28049 | 6.76776 | 125 ft | 3 kts | 348° |
| 2026-05-07 18:11 | 51.28043 | 6.76777 | 124 ft | 0 kts | 5° |
| 2026-05-07 18:12 | 51.28054 | 6.76785 | 126 ft | 3 kts | 29° |
| 2026-05-07 18:12 | 51.28066 | 6.76792 | 125 ft | 0 kts | 19° |
| 2026-05-07 18:15 | 51.28084 | 6.76802 | 128 ft | 6 kts | 19° |
| 2026-05-07 18:15 | 51.28139 | 6.76826 | 127 ft | 11 kts | 15° |
| 2026-05-07 18:16 | 51.28227 | 6.76847 | 129 ft | 14 kts | 6° |
| 2026-05-07 18:16 | 51.28315 | 6.76795 | 124 ft | 17 kts | 323° |
| 2026-05-07 18:16 | 51.28408 | 6.76673 | 124 ft | 13 kts | 301° |
| 2026-05-07 18:16 | 51.28383 | 6.76555 | 123 ft | 11 kts | 231° |
| 2026-05-07 18:17 | 51.28340 | 6.76463 | 121 ft | 9 kts | 234° |
| 2026-05-07 18:17 | 51.28300 | 6.76376 | 124 ft | 12 kts | 232° |
| 2026-05-07 18:17 | 51.28240 | 6.76252 | 126 ft | 17 kts | 233° |
| 2026-05-07 18:17 | 51.28159 | 6.76083 | 126 ft | 22 kts | 232° |
| 2026-05-07 18:18 | 51.28061 | 6.75878 | 127 ft | 24 kts | 231° |
| 2026-05-07 18:18 | 51.27958 | 6.75662 | 126 ft | 25 kts | 233° |
| 2026-05-07 18:18 | 51.27872 | 6.75482 | 126 ft | 18 kts | 234° |
| 2026-05-07 18:18 | 51.27845 | 6.75357 | 123 ft | 10 kts | 297° |
| 2026-05-07 18:19 | 51.27902 | 6.75303 | 123 ft | 9 kts | 334° |
| 2026-05-07 18:19 | 51.27958 | 6.75261 | 123 ft | 8 kts | 336° |
| 2026-05-07 18:19 | 51.27998 | 6.75273 | 123 ft | 5 kts | 51° |
| 2026-05-07 18:19 | 51.28018 | 6.75318 | 124 ft | 10 kts | 55° |
| 2026-05-07 18:20 | 51.28194 | 6.75691 | 127 ft | 78 kts | 52° |
| 2026-05-07 18:20 | 51.28655 | 6.76655 | 127 ft | 137 kts | 52° |
| 2026-05-07 18:20 | 51.29284 | 6.78002 | 498 ft | 156 kts | 54° |
| 2026-05-07 18:20 | 51.29941 | 6.79417 | 1214 ft | 159 kts | 53° |
| 2026-05-07 18:21 | 51.30624 | 6.80859 | 1779 ft | 172 kts | 52° |
| 2026-05-07 18:21 | 51.31396 | 6.82481 | 2124 ft | 194 kts | 52° |
| 2026-05-07 18:21 | 51.32268 | 6.84312 | 2470 ft | 219 kts | 52° |
| 2026-05-07 18:21 | 51.33248 | 6.86367 | 2898 ft | 244 kts | 53° |
| 2026-05-07 18:22 | 51.34268 | 6.88585 | 3626 ft | 255 kts | 53° |
| 2026-05-07 18:22 | 51.34920 | 6.90196 | 4229 ft | 260 kts | 64° |
| 2026-05-07 18:22 | 51.35204 | 6.94000 | 5402 ft | 269 kts | 98° |
| 2026-05-07 18:22 | 51.34893 | 6.96982 | 6323 ft | 273 kts | 99° |
| 2026-05-07 18:23 | 51.34574 | 7.00016 | 7182 ft | 278 kts | 99° |
| 2026-05-07 18:23 | 51.34201 | 7.03078 | 8011 ft | 283 kts | 108° |
| 2026-05-07 18:23 | 51.33245 | 7.05839 | 8839 ft | 287 kts | 133° |
| 2026-05-07 18:23 | 51.31663 | 7.07804 | 9696 ft | 290 kts | 150° |
| 2026-05-07 18:24 | 51.29941 | 7.09470 | 10393 ft | 300 kts | 150° |
| 2026-05-07 18:24 | 51.28087 | 7.11248 | 10669 ft | 323 kts | 150° |
| 2026-05-07 18:24 | 51.26098 | 7.13158 | 11070 ft | 340 kts | 150° |
| 2026-05-07 18:24 | 51.24044 | 7.15132 | 11773 ft | 345 kts | 150° |
| 2026-05-07 18:25 | 51.21935 | 7.17039 | 12506 ft | 350 kts | 152° |
| 2026-05-07 18:25 | 51.19784 | 7.18878 | 13259 ft | 354 kts | 153° |
| 2026-05-07 18:25 | 51.17620 | 7.20682 | 13971 ft | 357 kts | 154° |
| 2026-05-07 18:25 | 51.15375 | 7.22544 | 14638 ft | 360 kts | 154° |
| 2026-05-07 18:26 | 51.13134 | 7.24410 | 14972 ft | 363 kts | 153° |
| 2026-05-07 18:26 | 51.10901 | 7.26285 | 15060 ft | 363 kts | 153° |
| 2026-05-07 18:26 | 51.08668 | 7.28170 | 15076 ft | 363 kts | 153° |
| 2026-05-07 18:26 | 51.06442 | 7.30051 | 15076 ft | 363 kts | 153° |
| 2026-05-07 18:27 | 51.04213 | 7.31935 | 15368 ft | 363 kts | 153° |
| 2026-05-07 18:27 | 51.01975 | 7.33827 | 15743 ft | 365 kts | 153° |
| 2026-05-07 18:27 | 50.99748 | 7.35708 | 16118 ft | 367 kts | 153° |
| 2026-05-07 18:27 | 50.97483 | 7.37623 | 16502 ft | 370 kts | 153° |
| 2026-05-07 18:28 | 50.95208 | 7.39550 | 16900 ft | 372 kts | 153° |
| 2026-05-07 18:28 | 50.92944 | 7.41570 | 17297 ft | 374 kts | 151° |
| 2026-05-07 18:28 | 50.90708 | 7.43666 | 17696 ft | 376 kts | 150° |
| 2026-05-07 18:28 | 50.88458 | 7.45828 | 18104 ft | 379 kts | 150° |
| 2026-05-07 18:29 | 50.86196 | 7.48015 | 18492 ft | 381 kts | 150° |
| 2026-05-07 18:29 | 50.83918 | 7.50210 | 18843 ft | 383 kts | 150° |
| 2026-05-07 18:29 | 50.81658 | 7.52370 | 19027 ft | 385 kts | 150° |
| 2026-05-07 18:29 | 50.79340 | 7.54566 | 19068 ft | 390 kts | 150° |
| 2026-05-07 18:30 | 50.77004 | 7.56767 | 19067 ft | 390 kts | 150° |
| 2026-05-07 18:30 | 50.74662 | 7.58957 | 19066 ft | 390 kts | 151° |
| 2026-05-07 18:30 | 50.72346 | 7.61115 | 18973 ft | 385 kts | 151° |
| 2026-05-07 18:30 | 50.70073 | 7.63240 | 18728 ft | 375 kts | 150° |
| 2026-05-07 18:31 | 50.67849 | 7.65327 | 18493 ft | 368 kts | 150° |
| 2026-05-07 18:31 | 50.65647 | 7.67391 | 18219 ft | 365 kts | 150° |
| 2026-05-07 18:31 | 50.63492 | 7.69406 | 17761 ft | 363 kts | 151° |
| 2026-05-07 18:31 | 50.61318 | 7.71433 | 17288 ft | 361 kts | 150° |
| 2026-05-07 18:32 | 50.59164 | 7.73442 | 16850 ft | 358 kts | 150° |
| 2026-05-07 18:32 | 50.57019 | 7.75438 | 16411 ft | 356 kts | 150° |
| 2026-05-07 18:32 | 50.54888 | 7.77418 | 15977 ft | 354 kts | 150° |
| 2026-05-07 18:32 | 50.52774 | 7.79384 | 15537 ft | 352 kts | 150° |
| 2026-05-07 18:33 | 50.50670 | 7.81338 | 15109 ft | 349 kts | 150° |
| 2026-05-07 18:33 | 50.48611 | 7.83247 | 14693 ft | 344 kts | 150° |
| 2026-05-07 18:33 | 50.46586 | 7.85124 | 14279 ft | 331 kts | 150° |
| 2026-05-07 18:33 | 50.44638 | 7.86927 | 13936 ft | 317 kts | 150° |
| 2026-05-07 18:34 | 50.42771 | 7.88654 | 13564 ft | 305 kts | 150° |
| 2026-05-07 18:34 | 50.40993 | 7.90296 | 13193 ft | 295 kts | 150° |
| 2026-05-07 18:34 | 50.39254 | 7.91901 | 12825 ft | 285 kts | 150° |
| 2026-05-07 18:34 | 50.37566 | 7.93458 | 12451 ft | 277 kts | 151° |
| 2026-05-07 18:35 | 50.35929 | 7.94968 | 12090 ft | 270 kts | 151° |
| 2026-05-07 18:35 | 50.34326 | 7.96441 | 11739 ft | 267 kts | 151° |
| 2026-05-07 18:35 | 50.32722 | 7.97911 | 11384 ft | 267 kts | 151° |
| 2026-05-07 18:35 | 50.31119 | 7.99376 | 11030 ft | 264 kts | 151° |
| 2026-05-07 18:36 | 50.29528 | 8.00831 | 10683 ft | 263 kts | 150° |
| 2026-05-07 18:36 | 50.28038 | 8.02426 | 10431 ft | 263 kts | 139° |
| 2026-05-07 18:36 | 50.26810 | 8.04533 | 10185 ft | 262 kts | 125° |
| 2026-05-07 18:36 | 50.25935 | 8.07016 | 10071 ft | 262 kts | 111° |
| 2026-05-07 18:37 | 50.25420 | 8.09743 | 10064 ft | 262 kts | 103° |
| 2026-05-07 18:37 | 50.24979 | 8.12515 | 10070 ft | 262 kts | 104° |
| 2026-05-07 18:37 | 50.24531 | 8.15276 | 10048 ft | 263 kts | 104° |
| 2026-05-07 18:37 | 50.24077 | 8.18059 | 9780 ft | 262 kts | 104° |
| 2026-05-07 18:38 | 50.23634 | 8.20774 | 9512 ft | 260 kts | 104° |
| 2026-05-07 18:38 | 50.23188 | 8.23512 | 9248 ft | 259 kts | 104° |
| 2026-05-07 18:38 | 50.22744 | 8.26235 | 8978 ft | 257 kts | 104° |
| 2026-05-07 18:38 | 50.22163 | 8.28855 | 8701 ft | 256 kts | 121° |
| 2026-05-07 18:39 | 50.20990 | 8.30904 | 8449 ft | 254 kts | 147° |
| 2026-05-07 18:39 | 50.19390 | 8.31972 | 8188 ft | 250 kts | 172° |
| 2026-05-07 18:39 | 50.17684 | 8.31885 | 7924 ft | 246 kts | 198° |
| 2026-05-07 18:39 | 50.16169 | 8.30705 | 7659 ft | 242 kts | 222° |
| 2026-05-07 18:40 | 50.14976 | 8.28895 | 7431 ft | 241 kts | 227° |
| 2026-05-07 18:40 | 50.13787 | 8.27042 | 7177 ft | 241 kts | 226° |
| 2026-05-07 18:40 | 50.12602 | 8.25202 | 6924 ft | 240 kts | 226° |
| 2026-05-07 18:40 | 50.11419 | 8.23377 | 6679 ft | 238 kts | 226° |
| 2026-05-07 18:41 | 50.10244 | 8.21562 | 6428 ft | 237 kts | 226° |
| 2026-05-07 18:41 | 50.09083 | 8.19776 | 6172 ft | 237 kts | 226° |
| 2026-05-07 18:41 | 50.07909 | 8.17974 | 5908 ft | 237 kts | 226° |
| 2026-05-07 18:41 | 50.06731 | 8.16162 | 5647 ft | 236 kts | 226° |
| 2026-05-07 18:42 | 50.05561 | 8.14363 | 5394 ft | 236 kts | 226° |
| 2026-05-07 18:42 | 50.04413 | 8.12567 | 5135 ft | 236 kts | 229° |
| 2026-05-07 18:42 | 50.03402 | 8.10556 | 5011 ft | 235 kts | 238° |
| 2026-05-07 18:42 | 50.02595 | 8.08347 | 5015 ft | 235 kts | 246° |
| 2026-05-07 18:43 | 50.01810 | 8.06135 | 5013 ft | 232 kts | 229° |
| 2026-05-07 18:43 | 50.00518 | 8.04833 | 5014 ft | 221 kts | 195° |
| 2026-05-07 18:43 | 49.99005 | 8.04825 | 5026 ft | 220 kts | 169° |
| 2026-05-07 18:43 | 49.97518 | 8.05411 | 5023 ft | 220 kts | 164° |
| 2026-05-07 18:44 | 49.96047 | 8.06082 | 5015 ft | 220 kts | 162° |
| 2026-05-07 18:44 | 49.94762 | 8.07295 | 5022 ft | 219 kts | 129° |
| 2026-05-07 18:44 | 49.94176 | 8.09389 | 5025 ft | 216 kts | 91° |
| 2026-05-07 18:44 | 49.94468 | 8.11650 | 5024 ft | 214 kts | 68° |
| 2026-05-07 18:45 | 49.95012 | 8.13823 | 5013 ft | 215 kts | 67° |
| 2026-05-07 18:45 | 49.95543 | 8.15955 | 5015 ft | 207 kts | 67° |
| 2026-05-07 18:45 | 49.96037 | 8.17976 | 4888 ft | 195 kts | 68° |
| 2026-05-07 18:45 | 49.96500 | 8.19878 | 4625 ft | 185 kts | 68° |
| 2026-05-07 18:46 | 49.96949 | 8.21726 | 4369 ft | 181 kts | 67° |
| 2026-05-07 18:46 | 49.97392 | 8.23549 | 4108 ft | 180 kts | 67° |
| 2026-05-07 18:46 | 49.97833 | 8.25363 | 3849 ft | 178 kts | 67° |
| 2026-05-07 18:46 | 49.98265 | 8.27147 | 3595 ft | 177 kts | 67° |
| 2026-05-07 18:47 | 49.98700 | 8.28940 | 3337 ft | 176 kts | 67° |
| 2026-05-07 18:47 | 49.99129 | 8.30715 | 3090 ft | 175 kts | 68° |
| 2026-05-07 18:47 | 49.99556 | 8.32481 | 2845 ft | 173 kts | 68° |
| 2026-05-07 18:47 | 49.99980 | 8.34233 | 2572 ft | 173 kts | 68° |
| 2026-05-07 18:48 | 50.00394 | 8.35949 | 2342 ft | 171 kts | 68° |
| 2026-05-07 18:48 | 50.00796 | 8.37618 | 2063 ft | 157 kts | 68° |
| 2026-05-07 18:48 | 50.01161 | 8.39134 | 1823 ft | 144 kts | 68° |
| 2026-05-07 18:48 | 50.01518 | 8.40558 | 1611 ft | 139 kts | 68° |
| 2026-05-07 18:49 | 50.01850 | 8.41939 | 1423 ft | 137 kts | 69° |
| 2026-05-07 18:49 | 50.02172 | 8.43336 | 1249 ft | 137 kts | 70° |
| 2026-05-07 18:49 | 50.02514 | 8.44711 | 1053 ft | 137 kts | 69° |
| 2026-05-07 18:49 | 50.02839 | 8.46096 | 869 ft | 136 kts | 69° |
| 2026-05-07 18:50 | 50.03172 | 8.47471 | 667 ft | 134 kts | 69° |
| 2026-05-07 18:50 | 50.03487 | 8.48796 | 475 ft | 131 kts | 69° |
| 2026-05-07 18:50 | 50.03802 | 8.50122 | 329 ft | 129 kts | 69° |
| 2026-05-07 18:50 | 50.04083 | 8.51281 | 327 ft | 92 kts | 69° |
| 2026-05-07 18:51 | 50.04270 | 8.52057 | 337 ft | 68 kts | 69° |
| 2026-05-07 18:51 | 50.04378 | 8.52533 | 347 ft | 34 kts | 74° |
| 2026-05-07 18:51 | 50.04386 | 8.52873 | 354 ft | 30 kts | 99° |
| 2026-05-07 18:51 | 50.04353 | 8.53176 | 362 ft | 26 kts | 99° |
| 2026-05-07 18:52 | 50.04377 | 8.53404 | 373 ft | 19 kts | 70° |
| 2026-05-07 18:52 | 50.04400 | 8.53591 | 375 ft | 18 kts | 84° |
| 2026-05-07 18:52 | 50.04414 | 8.53793 | 375 ft | 20 kts | 84° |
| 2026-05-07 18:52 | 50.04428 | 8.54013 | 375 ft | 21 kts | 84° |
| 2026-05-07 18:53 | 50.04444 | 8.54244 | 375 ft | 22 kts | 83° |
| 2026-05-07 18:53 | 50.04449 | 8.54504 | 368 ft | 27 kts | 100° |
| 2026-05-07 18:53 | 50.04364 | 8.54720 | 360 ft | 16 kts | 141° |
| 2026-05-07 18:53 | 50.04333 | 8.54753 | 361 ft | 0 kts | 148° |
| 2026-05-07 18:54 | 50.04328 | 8.54758 | 359 ft | 3 kts | 148° |
| 2026-05-07 18:55 | 50.04301 | 8.54779 | 361 ft | 6 kts | 158° |
| 2026-05-07 18:55 | 50.04250 | 8.54807 | 358 ft | 10 kts | 162° |
| 2026-05-07 18:55 | 50.04185 | 8.54842 | 357 ft | 10 kts | 159° |
| 2026-05-07 18:55 | 50.04111 | 8.54884 | 353 ft | 15 kts | 160° |
| 2026-05-07 18:56 | 50.04022 | 8.54946 | 357 ft | 12 kts | 127° |
| 2026-05-07 18:56 | 50.04031 | 8.55067 | 360 ft | 13 kts | 69° |
| 2026-05-07 18:56 | 50.04063 | 8.55205 | 355 ft | 15 kts | 69° |
| 2026-05-07 18:56 | 50.04103 | 8.55367 | 360 ft | 18 kts | 69° |
| 2026-05-07 18:57 | 50.04147 | 8.55555 | 357 ft | 19 kts | 69° |
| 2026-05-07 18:57 | 50.04191 | 8.55739 | 355 ft | 10 kts | 70° |
| 2026-05-07 18:57 | 50.04203 | 8.55789 | 358 ft | 0 kts | 69° |
| 2026-05-07 18:59 | 50.04207 | 8.55804 | 355 ft | 4 kts | 69° |
| 2026-05-07 19:00 | 50.04223 | 8.55874 | 360 ft | 10 kts | 70° |
| 2026-05-07 19:00 | 50.04310 | 8.55949 | 357 ft | 16 kts | 340° |
| 2026-05-07 19:00 | 50.04385 | 8.55910 | 359 ft | 19 kts | 349° |
| 2026-05-07 19:00 | 50.04518 | 8.55953 | 362 ft | 18 kts | 18° |
| 2026-05-07 19:01 | 50.04588 | 8.56107 | 360 ft | 19 kts | 70° |
| 2026-05-07 19:01 | 50.04636 | 8.56308 | 359 ft | 20 kts | 69° |
| 2026-05-07 19:01 | 50.04682 | 8.56496 | 360 ft | 16 kts | 66° |
| 2026-05-07 19:01 | 50.04733 | 8.56613 | 360 ft | 10 kts | 53° |
| 2026-05-07 19:02 | 50.04778 | 8.56670 | 358 ft | 9 kts | 22° |
| 2026-05-07 19:02 | 50.04799 | 8.56733 | 360 ft | 5 kts | 114° |
| 2026-05-07 19:02 | 50.04787 | 8.56766 | 363 ft | 1 kts | 116° |
| 2026-05-07 19:02 | 50.04786 | 8.56771 | 362 ft | 0 kts | 116° |
| 2026-05-07 19:03 | 50.04785 | 8.56771 | 362 ft | 0 kts | 116° |
| 2026-05-07 19:06 | 50.04785 | 8.56772 | 362 ft | 0 kts | 116° |